SBI8098 LTAI-UUDD
Flight info
| Callsign | SBI8098 |
|---|---|
| Flight time | N/A |
| Altitude | 37000 |
| Route | HISAR P29 BAG UW71 CRM DCT ODIRA/K0839F370 G900 SM G247 BALEG W70 AMEPU A100 KL L91 KANON T748 PEPOR T611 TUKMO N50 OLOPI OLOPI3N |
| Aircraft | A320/M-SDFGIJ1RWY/LB1 |
Departure
| Time | 2026-05-07 11:14 |
|---|---|
| Airport | Antalya International Airport (LTAI) |
Arrival
| Time | N/A |
|---|---|
| Airport | Domodedovo International Airport (UUDD) |
| Time | Latitude | Longitude | Altitude | Speed | Heading |
|---|---|---|---|---|---|
| 2026-05-07 11:08 | 36.90164 | 30.80773 | 192 ft | 15 kts | 6° |
| 2026-05-07 11:09 | 36.90266 | 30.80787 | 203 ft | 14 kts | 6° |
| 2026-05-07 11:09 | 36.90359 | 30.80800 | 195 ft | 13 kts | 6° |
| 2026-05-07 11:09 | 36.90444 | 30.80811 | 191 ft | 12 kts | 6° |
| 2026-05-07 11:09 | 36.90521 | 30.80822 | 199 ft | 10 kts | 6° |
| 2026-05-07 11:10 | 36.90589 | 30.80831 | 201 ft | 9 kts | 6° |
| 2026-05-07 11:10 | 36.90664 | 30.80841 | 204 ft | 15 kts | 6° |
| 2026-05-07 11:10 | 36.90755 | 30.80854 | 191 ft | 10 kts | 7° |
| 2026-05-07 11:10 | 36.90828 | 30.80864 | 191 ft | 11 kts | 6° |
| 2026-05-07 11:11 | 36.90910 | 30.80875 | 193 ft | 12 kts | 6° |
| 2026-05-07 11:11 | 36.90994 | 30.80887 | 200 ft | 12 kts | 6° |
| 2026-05-07 11:11 | 36.91069 | 30.80897 | 198 ft | 10 kts | 6° |
| 2026-05-07 11:11 | 36.91128 | 30.80932 | 194 ft | 9 kts | 46° |
| 2026-05-07 11:12 | 36.91136 | 30.80998 | 191 ft | 7 kts | 96° |
| 2026-05-07 11:12 | 36.91129 | 30.81077 | 200 ft | 10 kts | 97° |
| 2026-05-07 11:12 | 36.91103 | 30.81139 | 196 ft | 4 kts | 180° |
| 2026-05-07 11:12 | 36.91093 | 30.81137 | 193 ft | 0 kts | 187° |
| 2026-05-07 11:13 | 36.91092 | 30.81137 | 193 ft | 0 kts | 187° |
| 2026-05-07 11:13 | 36.90882 | 30.81108 | 194 ft | 66 kts | 186° |
| 2026-05-07 11:13 | 36.90217 | 30.81017 | 194 ft | 124 kts | 186° |
| 2026-05-07 11:13 | 36.89216 | 30.80876 | 362 ft | 153 kts | 185° |
| 2026-05-07 11:14 | 36.88176 | 30.80727 | 1081 ft | 150 kts | 185° |
| 2026-05-07 11:14 | 36.87147 | 30.80585 | 1670 ft | 149 kts | 186° |
| 2026-05-07 11:14 | 36.86107 | 30.80442 | 2174 ft | 153 kts | 188° |
| 2026-05-07 11:14 | 36.85112 | 30.79951 | 2580 ft | 160 kts | 219° |
| 2026-05-07 11:15 | 36.84509 | 30.78758 | 2896 ft | 171 kts | 266° |
| 2026-05-07 11:15 | 36.84725 | 30.77364 | 3452 ft | 167 kts | 305° |
| 2026-05-07 11:15 | 36.85660 | 30.76452 | 3747 ft | 184 kts | 344° |
| 2026-05-07 11:15 | 36.86991 | 30.76078 | 4002 ft | 208 kts | 348° |
| 2026-05-07 11:16 | 36.88491 | 30.75691 | 4339 ft | 232 kts | 348° |
| 2026-05-07 11:16 | 36.90157 | 30.75260 | 4762 ft | 255 kts | 348° |
| 2026-05-07 11:16 | 36.91923 | 30.74798 | 5493 ft | 263 kts | 348° |
| 2026-05-07 11:16 | 36.93734 | 30.74381 | 6376 ft | 266 kts | 355° |
| 2026-05-07 11:17 | 36.95587 | 30.74572 | 7198 ft | 271 kts | 14° |
| 2026-05-07 11:17 | 36.97315 | 30.75536 | 8014 ft | 276 kts | 33° |
| 2026-05-07 11:17 | 36.98731 | 30.77182 | 8841 ft | 281 kts | 47° |
| 2026-05-07 11:17 | 37.00012 | 30.79050 | 9685 ft | 284 kts | 47° |
| 2026-05-07 11:18 | 37.01313 | 30.80937 | 10363 ft | 294 kts | 47° |
| 2026-05-07 11:18 | 37.02823 | 30.82795 | 10594 ft | 315 kts | 37° |
| 2026-05-07 11:18 | 37.04722 | 30.84332 | 10830 ft | 334 kts | 24° |
| 2026-05-07 11:18 | 37.06894 | 30.85343 | 11382 ft | 340 kts | 13° |
| 2026-05-07 11:19 | 37.09269 | 30.85803 | 12093 ft | 343 kts | 4° |
| 2026-05-07 11:19 | 37.11660 | 30.86086 | 12841 ft | 346 kts | 4° |
| 2026-05-07 11:19 | 37.13690 | 30.86327 | 13439 ft | 349 kts | 4° |
| 2026-05-07 11:19 | 37.16036 | 30.86609 | 14145 ft | 351 kts | 4° |
| 2026-05-07 11:20 | 37.18467 | 30.86906 | 14784 ft | 354 kts | 4° |
| 2026-05-07 11:20 | 37.20916 | 30.87209 | 15430 ft | 356 kts | 4° |
| 2026-05-07 11:20 | 37.23394 | 30.87519 | 16074 ft | 358 kts | 4° |
| 2026-05-07 11:20 | 37.25885 | 30.87831 | 16719 ft | 360 kts | 4° |
| 2026-05-07 11:21 | 37.28387 | 30.88143 | 17345 ft | 363 kts | 4° |
| 2026-05-07 11:21 | 37.30905 | 30.88456 | 17952 ft | 365 kts | 3° |
| 2026-05-07 11:21 | 37.33445 | 30.88771 | 18554 ft | 368 kts | 3° |
| 2026-05-07 11:21 | 37.35962 | 30.89083 | 19104 ft | 370 kts | 3° |
| 2026-05-07 11:22 | 37.38534 | 30.89399 | 19644 ft | 373 kts | 3° |
| 2026-05-07 11:22 | 37.41127 | 30.89717 | 20187 ft | 376 kts | 3° |
| 2026-05-07 11:22 | 37.43735 | 30.90038 | 20715 ft | 379 kts | 2° |
| 2026-05-07 11:22 | 37.46350 | 30.90362 | 21230 ft | 381 kts | 3° |
| 2026-05-07 11:23 | 37.48579 | 30.90654 | 21666 ft | 384 kts | 3° |
| 2026-05-07 11:23 | 37.50000 | 30.90847 | 21937 ft | 386 kts | 3° |
| 2026-05-07 11:23 | 37.52676 | 30.91218 | 22420 ft | 388 kts | 3° |
| 2026-05-07 11:23 | 37.55371 | 30.91593 | 22909 ft | 391 kts | 3° |
| 2026-05-07 11:24 | 37.58090 | 30.91971 | 23380 ft | 393 kts | 3° |
| 2026-05-07 11:24 | 37.60801 | 30.92364 | 23830 ft | 396 kts | 3° |
| 2026-05-07 11:24 | 37.63521 | 30.92779 | 24210 ft | 398 kts | 4° |
| 2026-05-07 11:24 | 37.66274 | 30.93211 | 24589 ft | 400 kts | 4° |
| 2026-05-07 11:25 | 37.69036 | 30.93646 | 24959 ft | 401 kts | 4° |
| 2026-05-07 11:25 | 37.71813 | 30.94077 | 25332 ft | 403 kts | 3° |
| 2026-05-07 11:25 | 37.74580 | 30.94516 | 25682 ft | 406 kts | 6° |
| 2026-05-07 11:25 | 37.77364 | 30.95407 | 26034 ft | 413 kts | 15° |
| 2026-05-07 11:26 | 37.79971 | 30.96914 | 26388 ft | 421 kts | 25° |
| 2026-05-07 11:26 | 37.82395 | 30.99038 | 26712 ft | 428 kts | 33° |
| 2026-05-07 11:26 | 37.84741 | 31.01388 | 27046 ft | 430 kts | 33° |
| 2026-05-07 11:26 | 37.87095 | 31.03752 | 27414 ft | 431 kts | 33° |
| 2026-05-07 11:27 | 37.89440 | 31.06114 | 27742 ft | 432 kts | 33° |
| 2026-05-07 11:27 | 37.91798 | 31.08501 | 28023 ft | 435 kts | 33° |
| 2026-05-07 11:27 | 37.94140 | 31.10948 | 28324 ft | 438 kts | 34° |
| 2026-05-07 11:27 | 37.96469 | 31.13447 | 28618 ft | 439 kts | 35° |
| 2026-05-07 11:28 | 37.98798 | 31.15982 | 28906 ft | 441 kts | 35° |
| 2026-05-07 11:28 | 38.01029 | 31.18694 | 29165 ft | 449 kts | 43° |
| 2026-05-07 11:28 | 38.02911 | 31.21845 | 29433 ft | 458 kts | 52° |
| 2026-05-07 11:28 | 38.04424 | 31.25434 | 29690 ft | 467 kts | 61° |
| 2026-05-07 11:29 | 38.05513 | 31.29346 | 29936 ft | 473 kts | 66° |
| 2026-05-07 11:29 | 38.06492 | 31.33339 | 30265 ft | 473 kts | 66° |
| 2026-05-07 11:29 | 38.07448 | 31.37272 | 30565 ft | 472 kts | 66° |
| 2026-05-07 11:29 | 38.08414 | 31.41256 | 30845 ft | 472 kts | 66° |
| 2026-05-07 11:30 | 38.09375 | 31.45077 | 31104 ft | 469 kts | 63° |
| 2026-05-07 11:30 | 38.10729 | 31.48789 | 31363 ft | 460 kts | 53° |
| 2026-05-07 11:30 | 38.12511 | 31.52118 | 31643 ft | 451 kts | 44° |
| 2026-05-07 11:30 | 38.14640 | 31.54991 | 31966 ft | 441 kts | 35° |
| 2026-05-07 11:31 | 38.17011 | 31.57325 | 32272 ft | 433 kts | 27° |
| 2026-05-07 11:31 | 38.19618 | 31.59177 | 32562 ft | 426 kts | 20° |
| 2026-05-07 11:31 | 38.22280 | 31.60833 | 32829 ft | 426 kts | 20° |
| 2026-05-07 11:31 | 38.24940 | 31.62502 | 33122 ft | 426 kts | 20° |
| 2026-05-07 11:32 | 38.30237 | 31.65848 | 33697 ft | 424 kts | 20° |
| 2026-05-07 11:32 | 38.32880 | 31.67523 | 33979 ft | 424 kts | 20° |
| 2026-05-07 11:32 | 38.35520 | 31.69199 | 34249 ft | 424 kts | 20° |
| 2026-05-07 11:33 | 38.38128 | 31.70857 | 34481 ft | 424 kts | 20° |
| 2026-05-07 11:33 | 38.40767 | 31.72533 | 34716 ft | 423 kts | 20° |
| 2026-05-07 11:33 | 38.43406 | 31.74207 | 34951 ft | 424 kts | 20° |
| 2026-05-07 11:33 | 38.46041 | 31.75878 | 35165 ft | 424 kts | 20° |
| 2026-05-07 11:34 | 38.48689 | 31.77556 | 35374 ft | 424 kts | 20° |
| 2026-05-07 11:34 | 38.51329 | 31.79229 | 35577 ft | 424 kts | 20° |
| 2026-05-07 11:34 | 38.53967 | 31.80905 | 35795 ft | 424 kts | 20° |
| 2026-05-07 11:34 | 38.56606 | 31.82589 | 35997 ft | 424 kts | 20° |
| 2026-05-07 11:35 | 38.59244 | 31.84272 | 36191 ft | 424 kts | 20° |
| 2026-05-07 11:35 | 38.61884 | 31.85957 | 36384 ft | 424 kts | 20° |
| 2026-05-07 11:35 | 38.64527 | 31.87644 | 36567 ft | 424 kts | 20° |
| 2026-05-07 11:35 | 38.67165 | 31.89329 | 36741 ft | 424 kts | 21° |
| 2026-05-07 11:36 | 38.69808 | 31.91015 | 36902 ft | 424 kts | 20° |
| 2026-05-07 11:36 | 38.72444 | 31.92696 | 37059 ft | 424 kts | 20° |
| 2026-05-07 11:36 | 38.75087 | 31.94382 | 37188 ft | 425 kts | 21° |
| 2026-05-07 11:37 | 38.80361 | 31.97760 | 37205 ft | 427 kts | 21° |
| 2026-05-07 11:37 | 38.85675 | 32.01176 | 37208 ft | 427 kts | 21° |
| 2026-05-07 11:38 | 38.90987 | 32.04593 | 37208 ft | 427 kts | 21° |
| 2026-05-07 11:38 | 38.96306 | 32.08023 | 37214 ft | 428 kts | 21° |
| 2026-05-07 11:39 | 39.01622 | 32.11454 | 37205 ft | 428 kts | 21° |
| 2026-05-07 11:39 | 39.06943 | 32.14893 | 37207 ft | 428 kts | 21° |
| 2026-05-07 11:40 | 39.12269 | 32.18348 | 37220 ft | 429 kts | 21° |
| 2026-05-07 11:40 | 39.17606 | 32.21814 | 37219 ft | 429 kts | 21° |
| 2026-05-07 11:41 | 39.22908 | 32.25247 | 37219 ft | 429 kts | 21° |
| 2026-05-07 11:41 | 39.28235 | 32.28709 | 37229 ft | 429 kts | 21° |
| 2026-05-07 11:42 | 39.33566 | 32.32190 | 37226 ft | 429 kts | 21° |
| 2026-05-07 11:42 | 39.38898 | 32.35678 | 37235 ft | 429 kts | 21° |
| 2026-05-07 11:43 | 39.44218 | 32.39175 | 37237 ft | 429 kts | 22° |
| 2026-05-07 11:43 | 39.49540 | 32.42686 | 37225 ft | 429 kts | 22° |
| 2026-05-07 11:44 | 39.54859 | 32.46196 | 37220 ft | 429 kts | 22° |
| 2026-05-07 11:44 | 39.60133 | 32.49693 | 37224 ft | 429 kts | 22° |
| 2026-05-07 11:45 | 39.65454 | 32.53224 | 37211 ft | 429 kts | 22° |